sensor_id;sensor_type;location;lat;lon;timestamp;P1;durP1;ratioP1;P2;durP2;ratioP2
15528;SDS011;7866;52.280;9.500;2024-01-15T00:02:34;6.60;;;5.97;;
15528;SDS011;7866;52.280;9.500;2024-01-15T00:07:37;6.37;;;5.67;;
15528;SDS011;7866;52.280;9.500;2024-01-15T00:12:39;6.50;;;5.47;;
15528;SDS011;7866;52.280;9.500;2024-01-15T00:17:41;5.43;;;4.93;;
15528;SDS011;7866;52.280;9.500;2024-01-15T00:22:44;5.97;;;5.43;;
15528;SDS011;7866;52.280;9.500;2024-01-15T00:27:45;6.47;;;5.83;;
15528;SDS011;7866;52.280;9.500;2024-01-15T00:32:47;5.80;;;5.30;;
15528;SDS011;7866;52.280;9.500;2024-01-15T00:37:50;5.20;;;4.73;;
15528;SDS011;7866;52.280;9.500;2024-01-15T00:42:52;6.03;;;5.20;;
15528;SDS011;7866;52.280;9.500;2024-01-15T00:47:54;4.83;;;4.30;;
15528;SDS011;7866;52.280;9.500;2024-01-15T00:52:58;5.30;;;4.50;;
15528;SDS011;7866;52.280;9.500;2024-01-15T00:57:59;4.80;;;4.10;;
15528;SDS011;7866;52.280;9.500;2024-01-15T01:03:01;5.57;;;4.30;;
15528;SDS011;7866;52.280;9.500;2024-01-15T01:08:05;6.10;;;4.07;;
15528;SDS011;7866;52.280;9.500;2024-01-15T01:13:07;8.30;;;3.40;;
15528;SDS011;7866;52.280;9.500;2024-01-15T01:18:08;6.20;;;3.93;;
15528;SDS011;7866;52.280;9.500;2024-01-15T01:23:11;10.73;;;4.20;;
15528;SDS011;7866;52.280;9.500;2024-01-15T01:28:13;7.93;;;3.83;;
15528;SDS011;7866;52.280;9.500;2024-01-15T01:33:15;5.40;;;3.90;;
15528;SDS011;7866;52.280;9.500;2024-01-15T01:38:18;9.07;;;4.20;;
15528;SDS011;7866;52.280;9.500;2024-01-15T01:43:19;7.07;;;3.60;;
15528;SDS011;7866;52.280;9.500;2024-01-15T01:48:23;9.00;;;4.10;;
15528;SDS011;7866;52.280;9.500;2024-01-15T01:53:27;8.90;;;4.53;;
15528;SDS011;7866;52.280;9.500;2024-01-15T01:58:30;6.70;;;4.20;;
15528;SDS011;7866;52.280;9.500;2024-01-15T02:03:33;7.10;;;3.97;;
15528;SDS011;7866;52.280;9.500;2024-01-15T02:08:37;7.47;;;4.27;;
15528;SDS011;7866;52.280;9.500;2024-01-15T02:13:39;9.70;;;4.33;;
15528;SDS011;7866;52.280;9.500;2024-01-15T02:18:41;6.60;;;3.63;;
15528;SDS011;7866;52.280;9.500;2024-01-15T02:23:44;6.87;;;3.70;;
15528;SDS011;7866;52.280;9.500;2024-01-15T02:28:46;8.93;;;3.93;;
15528;SDS011;7866;52.280;9.500;2024-01-15T02:33:48;4.73;;;3.27;;
15528;SDS011;7866;52.280;9.500;2024-01-15T02:38:51;5.53;;;3.07;;
15528;SDS011;7866;52.280;9.500;2024-01-15T02:43:53;6.17;;;2.93;;
15528;SDS011;7866;52.280;9.500;2024-01-15T02:48:55;8.40;;;3.10;;
15528;SDS011;7866;52.280;9.500;2024-01-15T02:53:58;10.03;;;2.90;;
15528;SDS011;7866;52.280;9.500;2024-01-15T02:58:59;6.10;;;2.97;;
15528;SDS011;7866;52.280;9.500;2024-01-15T03:04:01;8.97;;;2.40;;
15528;SDS011;7866;52.280;9.500;2024-01-15T03:09:04;7.00;;;2.70;;
15528;SDS011;7866;52.280;9.500;2024-01-15T03:14:05;7.30;;;2.60;;
15528;SDS011;7866;52.280;9.500;2024-01-15T03:19:07;4.47;;;1.90;;
15528;SDS011;7866;52.280;9.500;2024-01-15T03:24:10;9.57;;;2.10;;
15528;SDS011;7866;52.280;9.500;2024-01-15T03:29:12;5.33;;;2.03;;
15528;SDS011;7866;52.280;9.500;2024-01-15T03:34:13;5.97;;;2.20;;
15528;SDS011;7866;52.280;9.500;2024-01-15T03:39:16;10.57;;;2.50;;
15528;SDS011;7866;52.280;9.500;2024-01-15T03:44:18;7.30;;;2.60;;
15528;SDS011;7866;52.280;9.500;2024-01-15T03:49:19;9.67;;;2.37;;
15528;SDS011;7866;52.280;9.500;2024-01-15T03:54:22;9.07;;;2.80;;
15528;SDS011;7866;52.280;9.500;2024-01-15T03:59:24;6.30;;;2.40;;
15528;SDS011;7866;52.280;9.500;2024-01-15T04:04:26;4.37;;;2.10;;
15528;SDS011;7866;52.280;9.500;2024-01-15T04:09:29;6.43;;;2.30;;
15528;SDS011;7866;52.280;9.500;2024-01-15T04:14:30;5.97;;;1.97;;
15528;SDS011;7866;52.280;9.500;2024-01-15T04:19:32;5.93;;;2.00;;
15528;SDS011;7866;52.280;9.500;2024-01-15T04:24:35;6.53;;;1.90;;
15528;SDS011;7866;52.280;9.500;2024-01-15T04:29:37;9.10;;;2.47;;
15528;SDS011;7866;52.280;9.500;2024-01-15T04:34:39;8.40;;;1.90;;
15528;SDS011;7866;52.280;9.500;2024-01-15T04:39:42;5.20;;;2.10;;
15528;SDS011;7866;52.280;9.500;2024-01-15T04:44:43;8.73;;;2.30;;
15528;SDS011;7866;52.280;9.500;2024-01-15T04:49:45;4.93;;;1.90;;
15528;SDS011;7866;52.280;9.500;2024-01-15T04:54:48;3.50;;;2.10;;
15528;SDS011;7866;52.280;9.500;2024-01-15T04:59:50;8.93;;;2.37;;
15528;SDS011;7866;52.280;9.500;2024-01-15T05:04:51;5.10;;;2.03;;
15528;SDS011;7866;52.280;9.500;2024-01-15T05:09:54;4.87;;;2.00;;
15528;SDS011;7866;52.280;9.500;2024-01-15T05:14:56;6.53;;;1.97;;
15528;SDS011;7866;52.280;9.500;2024-01-15T05:19:57;7.43;;;1.93;;
15528;SDS011;7866;52.280;9.500;2024-01-15T05:25:00;4.53;;;1.90;;
15528;SDS011;7866;52.280;9.500;2024-01-15T05:30:02;8.77;;;2.30;;
15528;SDS011;7866;52.280;9.500;2024-01-15T05:35:04;4.43;;;2.03;;
15528;SDS011;7866;52.280;9.500;2024-01-15T05:40:08;4.37;;;2.00;;
15528;SDS011;7866;52.280;9.500;2024-01-15T05:45:10;4.17;;;2.17;;
15528;SDS011;7866;52.280;9.500;2024-01-15T05:50:12;5.77;;;2.47;;
15528;SDS011;7866;52.280;9.500;2024-01-15T05:55:15;5.03;;;1.80;;
15528;SDS011;7866;52.280;9.500;2024-01-15T06:00:18;6.00;;;2.23;;
15528;SDS011;7866;52.280;9.500;2024-01-15T06:05:20;5.73;;;2.33;;
15528;SDS011;7866;52.280;9.500;2024-01-15T06:10:23;4.27;;;2.57;;
15528;SDS011;7866;52.280;9.500;2024-01-15T06:15:24;3.93;;;2.20;;
15528;SDS011;7866;52.280;9.500;2024-01-15T06:20:26;7.77;;;2.40;;
15528;SDS011;7866;52.280;9.500;2024-01-15T06:25:29;3.87;;;2.20;;
15528;SDS011;7866;52.280;9.500;2024-01-15T06:30:30;5.17;;;2.40;;
15528;SDS011;7866;52.280;9.500;2024-01-15T06:35:32;4.33;;;2.30;;
15528;SDS011;7866;52.280;9.500;2024-01-15T06:40:36;4.90;;;2.53;;
15528;SDS011;7866;52.280;9.500;2024-01-15T06:45:39;7.00;;;3.03;;
15528;SDS011;7866;52.280;9.500;2024-01-15T06:50:41;5.73;;;2.40;;
15528;SDS011;7866;52.280;9.500;2024-01-15T06:55:44;5.77;;;2.50;;
15528;SDS011;7866;52.280;9.500;2024-01-15T07:00:46;7.57;;;2.80;;
15528;SDS011;7866;52.280;9.500;2024-01-15T07:05:47;5.03;;;2.47;;
15528;SDS011;7866;52.280;9.500;2024-01-15T07:10:50;3.53;;;2.10;;
15528;SDS011;7866;52.280;9.500;2024-01-15T07:15:52;5.77;;;2.30;;
15528;SDS011;7866;52.280;9.500;2024-01-15T07:20:53;4.90;;;1.80;;
15528;SDS011;7866;52.280;9.500;2024-01-15T07:25:56;4.73;;;2.40;;
15528;SDS011;7866;52.280;9.500;2024-01-15T07:30:58;5.53;;;2.00;;
15528;SDS011;7866;52.280;9.500;2024-01-15T07:36:01;4.80;;;1.93;;
15528;SDS011;7866;52.280;9.500;2024-01-15T07:41:04;4.70;;;2.40;;
15528;SDS011;7866;52.280;9.500;2024-01-15T07:46:06;4.20;;;2.57;;
15528;SDS011;7866;52.280;9.500;2024-01-15T07:51:08;4.90;;;2.00;;
15528;SDS011;7866;52.280;9.500;2024-01-15T07:56:11;4.33;;;2.33;;
15528;SDS011;7866;52.280;9.500;2024-01-15T08:01:12;4.90;;;1.97;;
15528;SDS011;7866;52.280;9.500;2024-01-15T08:06:14;5.13;;;2.20;;
15528;SDS011;7866;52.280;9.500;2024-01-15T08:11:17;2.97;;;1.70;;
15528;SDS011;7866;52.280;9.500;2024-01-15T08:16:19;4.33;;;2.10;;
15528;SDS011;7866;52.280;9.500;2024-01-15T08:21:21;3.37;;;1.63;;
15528;SDS011;7866;52.280;9.500;2024-01-15T08:26:24;2.50;;;1.70;;
15528;SDS011;7866;52.280;9.500;2024-01-15T08:31:25;2.87;;;1.60;;
15528;SDS011;7866;52.280;9.500;2024-01-15T08:36:27;2.73;;;1.67;;
15528;SDS011;7866;52.280;9.500;2024-01-15T08:41:32;6.27;;;4.00;;
15528;SDS011;7866;52.280;9.500;2024-01-15T08:46:34;5.83;;;2.10;;
15528;SDS011;7866;52.280;9.500;2024-01-15T08:51:36;4.67;;;2.33;;
15528;SDS011;7866;52.280;9.500;2024-01-15T08:56:39;5.37;;;2.30;;
15528;SDS011;7866;52.280;9.500;2024-01-15T09:01:41;4.90;;;2.13;;
15528;SDS011;7866;52.280;9.500;2024-01-15T09:06:44;4.03;;;2.10;;
15528;SDS011;7866;52.280;9.500;2024-01-15T09:11:48;4.50;;;2.20;;
15528;SDS011;7866;52.280;9.500;2024-01-15T09:16:51;5.73;;;2.67;;
15528;SDS011;7866;52.280;9.500;2024-01-15T09:21:52;6.27;;;2.70;;
15528;SDS011;7866;52.280;9.500;2024-01-15T09:26:55;4.70;;;2.93;;
15528;SDS011;7866;52.280;9.500;2024-01-15T09:31:57;7.60;;;2.53;;
15528;SDS011;7866;52.280;9.500;2024-01-15T09:36:59;5.27;;;2.60;;
15528;SDS011;7866;52.280;9.500;2024-01-15T09:42:02;4.53;;;2.43;;
15528;SDS011;7866;52.280;9.500;2024-01-15T09:47:04;6.23;;;2.30;;
15528;SDS011;7866;52.280;9.500;2024-01-15T09:52:07;2.80;;;1.70;;
15528;SDS011;7866;52.280;9.500;2024-01-15T09:57:10;3.10;;;1.33;;
15528;SDS011;7866;52.280;9.500;2024-01-15T10:02:12;1.70;;;1.27;;
15528;SDS011;7866;52.280;9.500;2024-01-15T10:07:18;3.20;;;1.73;;
15528;SDS011;7866;52.280;9.500;2024-01-15T10:12:22;26.90;;;10.03;;
15528;SDS011;7866;52.280;9.500;2024-01-15T10:17:24;17.73;;;7.37;;
15528;SDS011;7866;52.280;9.500;2024-01-15T10:22:25;7.13;;;2.50;;
15528;SDS011;7866;52.280;9.500;2024-01-15T10:27:28;15.67;;;7.30;;
15528;SDS011;7866;52.280;9.500;2024-01-15T10:32:30;3.60;;;1.80;;
15528;SDS011;7866;52.280;9.500;2024-01-15T10:37:32;4.23;;;2.40;;
15528;SDS011;7866;52.280;9.500;2024-01-15T10:42:36;2.70;;;2.00;;
15528;SDS011;7866;52.280;9.500;2024-01-15T10:47:37;7.67;;;3.23;;
15528;SDS011;7866;52.280;9.500;2024-01-15T10:52:40;5.80;;;2.43;;
15528;SDS011;7866;52.280;9.500;2024-01-15T10:57:44;11.67;;;5.23;;
15528;SDS011;7866;52.280;9.500;2024-01-15T11:02:47;6.10;;;2.47;;
15528;SDS011;7866;52.280;9.500;2024-01-15T11:07:49;17.63;;;6.30;;
15528;SDS011;7866;52.280;9.500;2024-01-15T11:12:52;12.53;;;4.50;;
15528;SDS011;7866;52.280;9.500;2024-01-15T11:18:00;20.90;;;6.37;;
15528;SDS011;7866;52.280;9.500;2024-01-15T11:23:05;6.60;;;2.33;;
15528;SDS011;7866;52.280;9.500;2024-01-15T11:28:09;13.73;;;4.00;;
15528;SDS011;7866;52.280;9.500;2024-01-15T11:33:22;6.33;;;3.07;;
15528;SDS011;7866;52.280;9.500;2024-01-15T11:38:33;5.57;;;2.83;;
15528;SDS011;7866;52.280;9.500;2024-01-15T11:43:36;5.50;;;2.83;;
15528;SDS011;7866;52.280;9.500;2024-01-15T11:48:42;4.20;;;2.00;;
15528;SDS011;7866;52.280;9.500;2024-01-15T11:53:45;5.20;;;1.67;;
15528;SDS011;7866;52.280;9.500;2024-01-15T11:58:54;6.73;;;2.80;;
15528;SDS011;7866;52.280;9.500;2024-01-15T12:03:56;6.20;;;1.83;;
15528;SDS011;7866;52.280;9.500;2024-01-15T12:09:05;5.13;;;1.93;;
15528;SDS011;7866;52.280;9.500;2024-01-15T12:14:09;5.90;;;2.10;;
15528;SDS011;7866;52.280;9.500;2024-01-15T12:19:10;7.50;;;1.87;;
15528;SDS011;7866;52.280;9.500;2024-01-15T12:24:12;5.27;;;1.77;;
15528;SDS011;7866;52.280;9.500;2024-01-15T12:29:15;4.80;;;1.87;;
15528;SDS011;7866;52.280;9.500;2024-01-15T12:34:19;4.03;;;1.80;;
15528;SDS011;7866;52.280;9.500;2024-01-15T12:39:21;3.47;;;1.90;;
15528;SDS011;7866;52.280;9.500;2024-01-15T12:44:24;5.70;;;1.97;;
15528;SDS011;7866;52.280;9.500;2024-01-15T12:49:25;4.10;;;1.67;;
15528;SDS011;7866;52.280;9.500;2024-01-15T12:54:27;3.73;;;1.47;;
15528;SDS011;7866;52.280;9.500;2024-01-15T12:59:30;6.53;;;1.90;;
15528;SDS011;7866;52.280;9.500;2024-01-15T13:04:32;6.23;;;1.60;;
15528;SDS011;7866;52.280;9.500;2024-01-15T13:09:33;5.17;;;1.80;;
15528;SDS011;7866;52.280;9.500;2024-01-15T13:14:37;2.43;;;1.60;;
15528;SDS011;7866;52.280;9.500;2024-01-15T13:19:39;3.30;;;1.80;;
15528;SDS011;7866;52.280;9.500;2024-01-15T13:24:40;5.33;;;1.60;;
15528;SDS011;7866;52.280;9.500;2024-01-15T13:29:44;5.17;;;1.60;;
15528;SDS011;7866;52.280;9.500;2024-01-15T13:34:45;3.10;;;2.20;;
15528;SDS011;7866;52.280;9.500;2024-01-15T13:39:47;4.90;;;3.10;;
15528;SDS011;7866;52.280;9.500;2024-01-15T13:44:50;4.67;;;3.40;;
15528;SDS011;7866;52.280;9.500;2024-01-15T13:49:52;6.17;;;2.70;;
15528;SDS011;7866;52.280;9.500;2024-01-15T13:54:54;5.07;;;2.00;;
15528;SDS011;7866;52.280;9.500;2024-01-15T13:59:57;3.57;;;2.17;;
15528;SDS011;7866;52.280;9.500;2024-01-15T14:05:00;3.63;;;2.10;;
15528;SDS011;7866;52.280;9.500;2024-01-15T14:10:02;4.37;;;1.60;;
15528;SDS011;7866;52.280;9.500;2024-01-15T14:15:05;2.90;;;1.83;;
15528;SDS011;7866;52.280;9.500;2024-01-15T14:20:08;3.90;;;1.80;;
15528;SDS011;7866;52.280;9.500;2024-01-15T14:25:10;2.83;;;1.80;;
15528;SDS011;7866;52.280;9.500;2024-01-15T14:30:14;2.87;;;1.80;;
15528;SDS011;7866;52.280;9.500;2024-01-15T14:35:16;3.60;;;2.10;;
15528;SDS011;7866;52.280;9.500;2024-01-15T14:40:17;3.27;;;1.90;;
15528;SDS011;7866;52.280;9.500;2024-01-15T14:45:20;2.77;;;2.03;;
15528;SDS011;7866;52.280;9.500;2024-01-15T14:50:22;3.73;;;1.90;;
15528;SDS011;7866;52.280;9.500;2024-01-15T14:55:24;3.13;;;2.03;;
15528;SDS011;7866;52.280;9.500;2024-01-15T15:00:27;1.87;;;1.67;;
15528;SDS011;7866;52.280;9.500;2024-01-15T15:05:29;1.87;;;1.70;;
15528;SDS011;7866;52.280;9.500;2024-01-15T15:10:30;1.60;;;1.50;;
15528;SDS011;7866;52.280;9.500;2024-01-15T15:15:33;4.67;;;2.67;;
15528;SDS011;7866;52.280;9.500;2024-01-15T15:20:35;2.83;;;1.93;;
15528;SDS011;7866;52.280;9.500;2024-01-15T15:25:37;1.30;;;1.30;;
15528;SDS011;7866;52.280;9.500;2024-01-15T15:30:40;1.40;;;1.30;;
15528;SDS011;7866;52.280;9.500;2024-01-15T15:35:42;1.90;;;1.47;;
15528;SDS011;7866;52.280;9.500;2024-01-15T15:40:44;1.37;;;1.30;;
15528;SDS011;7866;52.280;9.500;2024-01-15T15:45:47;1.30;;;1.30;;
15528;SDS011;7866;52.280;9.500;2024-01-15T15:50:49;2.13;;;1.40;;
15528;SDS011;7866;52.280;9.500;2024-01-15T15:55:51;1.10;;;1.10;;
15528;SDS011;7866;52.280;9.500;2024-01-15T16:00:55;1.37;;;1.27;;
15528;SDS011;7866;52.280;9.500;2024-01-15T16:05:56;1.17;;;1.10;;
15528;SDS011;7866;52.280;9.500;2024-01-15T16:10:58;0.80;;;0.80;;
15528;SDS011;7866;52.280;9.500;2024-01-15T16:16:01;0.70;;;0.70;;
15528;SDS011;7866;52.280;9.500;2024-01-15T16:21:03;0.80;;;0.80;;
15528;SDS011;7866;52.280;9.500;2024-01-15T16:26:05;0.90;;;0.90;;
15528;SDS011;7866;52.280;9.500;2024-01-15T16:31:08;0.90;;;0.90;;
15528;SDS011;7866;52.280;9.500;2024-01-15T16:36:10;1.50;;;1.40;;
15528;SDS011;7866;52.280;9.500;2024-01-15T16:41:11;3.47;;;2.73;;
15528;SDS011;7866;52.280;9.500;2024-01-15T16:46:15;2.77;;;2.57;;
15528;SDS011;7866;52.280;9.500;2024-01-15T16:51:16;2.37;;;1.87;;
15528;SDS011;7866;52.280;9.500;2024-01-15T16:56:18;3.17;;;2.73;;
15528;SDS011;7866;52.280;9.500;2024-01-15T17:01:21;1.60;;;1.50;;
15528;SDS011;7866;52.280;9.500;2024-01-15T17:06:23;2.77;;;1.70;;
15528;SDS011;7866;52.280;9.500;2024-01-15T17:11:25;2.60;;;1.40;;
15528;SDS011;7866;52.280;9.500;2024-01-15T17:16:29;3.83;;;1.63;;
15528;SDS011;7866;52.280;9.500;2024-01-15T17:21:30;2.93;;;1.90;;
15528;SDS011;7866;52.280;9.500;2024-01-15T17:26:32;4.93;;;3.13;;
15528;SDS011;7866;52.280;9.500;2024-01-15T17:31:35;5.17;;;3.47;;
15528;SDS011;7866;52.280;9.500;2024-01-15T17:36:37;4.03;;;2.43;;
15528;SDS011;7866;52.280;9.500;2024-01-15T17:41:39;2.93;;;2.23;;
15528;SDS011;7866;52.280;9.500;2024-01-15T17:46:42;5.03;;;2.20;;
15528;SDS011;7866;52.280;9.500;2024-01-15T17:51:44;5.63;;;1.70;;
15528;SDS011;7866;52.280;9.500;2024-01-15T17:56:45;2.70;;;1.67;;
15528;SDS011;7866;52.280;9.500;2024-01-15T18:01:48;4.40;;;1.60;;
15528;SDS011;7866;52.280;9.500;2024-01-15T18:06:51;4.77;;;1.47;;
15528;SDS011;7866;52.280;9.500;2024-01-15T18:11:53;4.90;;;2.03;;
15528;SDS011;7866;52.280;9.500;2024-01-15T18:17:00;4.53;;;1.97;;
15528;SDS011;7866;52.280;9.500;2024-01-15T18:22:02;3.07;;;1.80;;
15528;SDS011;7866;52.280;9.500;2024-01-15T18:27:04;3.77;;;2.10;;
15528;SDS011;7866;52.280;9.500;2024-01-15T18:32:09;2.80;;;2.27;;
15528;SDS011;7866;52.280;9.500;2024-01-15T18:37:11;3.37;;;2.43;;
15528;SDS011;7866;52.280;9.500;2024-01-15T18:42:13;14.33;;;5.77;;
15528;SDS011;7866;52.280;9.500;2024-01-15T18:47:16;19.03;;;7.80;;
15528;SDS011;7866;52.280;9.500;2024-01-15T18:52:17;6.73;;;3.20;;
15528;SDS011;7866;52.280;9.500;2024-01-15T18:57:21;14.73;;;6.20;;
15528;SDS011;7866;52.280;9.500;2024-01-15T19:02:24;19.70;;;6.70;;
15528;SDS011;7866;52.280;9.500;2024-01-15T19:07:26;9.67;;;3.20;;
15528;SDS011;7866;52.280;9.500;2024-01-15T19:12:28;3.57;;;2.27;;
15528;SDS011;7866;52.280;9.500;2024-01-15T19:17:31;6.80;;;2.80;;
15528;SDS011;7866;52.280;9.500;2024-01-15T19:22:32;6.13;;;2.90;;
15528;SDS011;7866;52.280;9.500;2024-01-15T19:27:34;5.03;;;2.80;;
15528;SDS011;7866;52.280;9.500;2024-01-15T19:32:40;5.20;;;2.70;;
15528;SDS011;7866;52.280;9.500;2024-01-15T19:37:42;3.60;;;3.03;;
15528;SDS011;7866;52.280;9.500;2024-01-15T19:42:44;3.30;;;2.80;;
15528;SDS011;7866;52.280;9.500;2024-01-15T19:47:47;3.87;;;2.47;;
15528;SDS011;7866;52.280;9.500;2024-01-15T19:52:49;3.03;;;2.17;;
15528;SDS011;7866;52.280;9.500;2024-01-15T19:57:50;4.13;;;2.77;;
15528;SDS011;7866;52.280;9.500;2024-01-15T20:02:53;5.53;;;2.90;;
15528;SDS011;7866;52.280;9.500;2024-01-15T20:07:55;3.60;;;3.30;;
15528;SDS011;7866;52.280;9.500;2024-01-15T20:12:57;2.93;;;2.23;;
15528;SDS011;7866;52.280;9.500;2024-01-15T20:18:00;4.20;;;2.93;;
15528;SDS011;7866;52.280;9.500;2024-01-15T20:23:01;3.53;;;3.23;;
15528;SDS011;7866;52.280;9.500;2024-01-15T20:28:05;3.60;;;3.10;;
15528;SDS011;7866;52.280;9.500;2024-01-15T20:33:08;3.50;;;2.47;;
15528;SDS011;7866;52.280;9.500;2024-01-15T20:38:10;4.87;;;2.33;;
15528;SDS011;7866;52.280;9.500;2024-01-15T20:43:12;5.20;;;2.63;;
15528;SDS011;7866;52.280;9.500;2024-01-15T20:48:15;3.00;;;2.10;;
15528;SDS011;7866;52.280;9.500;2024-01-15T20:53:17;4.80;;;2.10;;
15528;SDS011;7866;52.280;9.500;2024-01-15T20:58:22;4.73;;;2.00;;
15528;SDS011;7866;52.280;9.500;2024-01-15T21:03:25;3.27;;;1.80;;
15528;SDS011;7866;52.280;9.500;2024-01-15T21:08:27;4.13;;;2.40;;
15528;SDS011;7866;52.280;9.500;2024-01-15T21:13:30;2.67;;;2.13;;
15528;SDS011;7866;52.280;9.500;2024-01-15T21:18:34;3.57;;;1.97;;
15528;SDS011;7866;52.280;9.500;2024-01-15T21:23:36;4.73;;;2.10;;
15528;SDS011;7866;52.280;9.500;2024-01-15T21:28:38;3.03;;;1.87;;
15528;SDS011;7866;52.280;9.500;2024-01-15T21:33:41;2.37;;;1.80;;
15528;SDS011;7866;52.280;9.500;2024-01-15T21:38:45;2.83;;;1.80;;
15528;SDS011;7866;52.280;9.500;2024-01-15T21:43:47;5.00;;;1.90;;
15528;SDS011;7866;52.280;9.500;2024-01-15T21:48:50;3.33;;;2.00;;
15528;SDS011;7866;52.280;9.500;2024-01-15T21:53:52;3.20;;;1.60;;
15528;SDS011;7866;52.280;9.500;2024-01-15T21:58:54;2.67;;;1.90;;
15528;SDS011;7866;52.280;9.500;2024-01-15T22:03:57;1.70;;;1.60;;
15528;SDS011;7866;52.280;9.500;2024-01-15T22:08:58;4.50;;;1.70;;
15528;SDS011;7866;52.280;9.500;2024-01-15T22:14:01;1.63;;;1.53;;
15528;SDS011;7866;52.280;9.500;2024-01-15T22:19:04;2.33;;;1.73;;
15528;SDS011;7866;52.280;9.500;2024-01-15T22:24:07;3.07;;;1.90;;
15528;SDS011;7866;52.280;9.500;2024-01-15T22:29:08;2.13;;;1.60;;
15528;SDS011;7866;52.280;9.500;2024-01-15T22:34:12;2.93;;;1.70;;
15528;SDS011;7866;52.280;9.500;2024-01-15T22:39:17;3.17;;;1.60;;
15528;SDS011;7866;52.280;9.500;2024-01-15T22:44:19;3.93;;;1.60;;
15528;SDS011;7866;52.280;9.500;2024-01-15T22:49:21;2.60;;;1.43;;
15528;SDS011;7866;52.280;9.500;2024-01-15T22:54:23;3.47;;;1.43;;
15528;SDS011;7866;52.280;9.500;2024-01-15T22:59:25;2.67;;;1.50;;
15528;SDS011;7866;52.280;9.500;2024-01-15T23:04:28;3.27;;;1.57;;
15528;SDS011;7866;52.280;9.500;2024-01-15T23:09:29;3.20;;;1.33;;
15528;SDS011;7866;52.280;9.500;2024-01-15T23:14:31;3.70;;;1.40;;
15528;SDS011;7866;52.280;9.500;2024-01-15T23:19:36;2.73;;;1.53;;
15528;SDS011;7866;52.280;9.500;2024-01-15T23:24:38;3.80;;;1.53;;
15528;SDS011;7866;52.280;9.500;2024-01-15T23:29:40;3.97;;;1.20;;
15528;SDS011;7866;52.280;9.500;2024-01-15T23:34:42;1.83;;;1.33;;
15528;SDS011;7866;52.280;9.500;2024-01-15T23:39:44;3.83;;;1.20;;
15528;SDS011;7866;52.280;9.500;2024-01-15T23:44:46;3.67;;;1.10;;
15528;SDS011;7866;52.280;9.500;2024-01-15T23:49:51;3.57;;;1.30;;
15528;SDS011;7866;52.280;9.500;2024-01-15T23:54:52;1.17;;;1.07;;
15528;SDS011;7866;52.280;9.500;2024-01-15T23:59:54;2.23;;;1.40;;
